sensor_id;sensor_type;location;lat;lon;timestamp;P1;P2;P0
21358;PMS7003;13506;50.852;20.632;2023-02-28T00:01:26;14.40;14.40;8.00
21358;PMS7003;13506;50.852;20.632;2023-02-28T00:03:54;25.60;23.80;15.20
21358;PMS7003;13506;50.852;20.632;2023-02-28T00:06:24;24.60;21.80;12.20
21358;PMS7003;13506;50.852;20.632;2023-02-28T00:08:52;26.80;22.80;15.00
21358;PMS7003;13506;50.852;20.632;2023-02-28T00:11:20;32.40;26.60;14.80
21358;PMS7003;13506;50.852;20.632;2023-02-28T00:13:48;115.75;83.50;53.75
21358;PMS7003;13506;50.852;20.632;2023-02-28T00:16:17;39.00;33.80;21.20
21358;PMS7003;13506;50.852;20.632;2023-02-28T00:18:46;28.80;23.20;13.80
21358;PMS7003;13506;50.852;20.632;2023-02-28T00:21:15;30.80;24.80;14.40
21358;PMS7003;13506;50.852;20.632;2023-02-28T00:23:44;29.60;24.40;12.80
21358;PMS7003;13506;50.852;20.632;2023-02-28T00:26:13;23.60;21.80;12.20
21358;PMS7003;13506;50.852;20.632;2023-02-28T00:28:44;27.80;23.20;12.20
21358;PMS7003;13506;50.852;20.632;2023-02-28T00:31:12;23.80;20.80;11.60
21358;PMS7003;13506;50.852;20.632;2023-02-28T00:33:40;29.60;26.80;15.80
21358;PMS7003;13506;50.852;20.632;2023-02-28T00:36:09;25.60;24.00;14.20
21358;PMS7003;13506;50.852;20.632;2023-02-28T00:38:38;20.00;20.00;12.00
21358;PMS7003;13506;50.852;20.632;2023-02-28T00:41:08;22.80;19.20;8.40
21358;PMS7003;13506;50.852;20.632;2023-02-28T00:43:37;22.00;20.40;12.00
21358;PMS7003;13506;50.852;20.632;2023-02-28T00:46:06;21.80;21.80;10.40
21358;PMS7003;13506;50.852;20.632;2023-02-28T00:48:34;24.00;21.40;10.80
21358;PMS7003;13506;50.852;20.632;2023-02-28T00:51:02;20.00;19.00;10.80
21358;PMS7003;13506;50.852;20.632;2023-02-28T00:53:31;15.80;15.80;8.00
21358;PMS7003;13506;50.852;20.632;2023-02-28T00:55:59;22.20;21.00;10.40
21358;PMS7003;13506;50.852;20.632;2023-02-28T00:58:28;20.20;19.00;9.60
21358;PMS7003;13506;50.852;20.632;2023-02-28T01:00:57;21.80;19.00;10.00
21358;PMS7003;13506;50.852;20.632;2023-02-28T01:03:25;25.60;19.40;12.40
21358;PMS7003;13506;50.852;20.632;2023-02-28T01:05:53;25.80;23.40;13.80
21358;PMS7003;13506;50.852;20.632;2023-02-28T01:08:21;23.80;20.80;11.80
21358;PMS7003;13506;50.852;20.632;2023-02-28T01:10:50;26.40;21.80;10.80
21358;PMS7003;13506;50.852;20.632;2023-02-28T01:13:18;22.00;16.00;9.60
21358;PMS7003;13506;50.852;20.632;2023-02-28T01:15:51;27.20;22.40;12.20
21358;PMS7003;13506;50.852;20.632;2023-02-28T01:18:21;23.60;20.20;10.80
21358;PMS7003;13506;50.852;20.632;2023-02-28T01:20:50;26.60;25.00;13.20
21358;PMS7003;13506;50.852;20.632;2023-02-28T01:23:18;29.20;22.00;12.00
21358;PMS7003;13506;50.852;20.632;2023-02-28T01:25:47;37.00;31.00;12.80
21358;PMS7003;13506;50.852;20.632;2023-02-28T01:28:14;20.60;20.60;12.00
21358;PMS7003;13506;50.852;20.632;2023-02-28T01:30:46;33.20;29.80;17.80
21358;PMS7003;13506;50.852;20.632;2023-02-28T01:33:17;27.20;22.80;13.20
21358;PMS7003;13506;50.852;20.632;2023-02-28T01:35:44;24.00;22.00;13.80
21358;PMS7003;13506;50.852;20.632;2023-02-28T01:38:12;23.20;21.20;14.80
21358;PMS7003;13506;50.852;20.632;2023-02-28T01:40:41;19.00;17.40;9.60
21358;PMS7003;13506;50.852;20.632;2023-02-28T01:43:10;23.60;19.20;11.60
21358;PMS7003;13506;50.852;20.632;2023-02-28T01:45:47;28.60;28.00;15.00
21358;PMS7003;13506;50.852;20.632;2023-02-28T01:48:16;20.40;19.00;13.80
21358;PMS7003;13506;50.852;20.632;2023-02-28T01:50:45;24.60;23.40;12.80
21358;PMS7003;13506;50.852;20.632;2023-02-28T01:53:15;25.20;24.00;14.40
21358;PMS7003;13506;50.852;20.632;2023-02-28T01:55:48;22.20;18.00;11.60
21358;PMS7003;13506;50.852;20.632;2023-02-28T01:58:20;18.20;18.20;9.20
21358;PMS7003;13506;50.852;20.632;2023-02-28T02:00:49;21.60;17.00;8.80
21358;PMS7003;13506;50.852;20.632;2023-02-28T02:03:18;23.00;20.60;11.20
21358;PMS7003;13506;50.852;20.632;2023-02-28T02:05:48;20.20;19.80;12.00
21358;PMS7003;13506;50.852;20.632;2023-02-28T02:08:17;19.80;17.60;11.40
21358;PMS7003;13506;50.852;20.632;2023-02-28T02:10:48;27.20;25.80;11.80
21358;PMS7003;13506;50.852;20.632;2023-02-28T02:13:29;30.80;29.40;15.20
21358;PMS7003;13506;50.852;20.632;2023-02-28T02:16:20;30.40;24.40;14.00
21358;PMS7003;13506;50.852;20.632;2023-02-28T02:19:04;24.20;23.00;12.00
21358;PMS7003;13506;50.852;20.632;2023-02-28T02:22:11;29.00;26.60;15.00
21358;PMS7003;13506;50.852;20.632;2023-02-28T02:25:02;32.00;27.40;16.00
21358;PMS7003;13506;50.852;20.632;2023-02-28T02:27:54;26.40;23.00;12.60
21358;PMS7003;13506;50.852;20.632;2023-02-28T02:30:46;24.00;21.80;12.00
21358;PMS7003;13506;50.852;20.632;2023-02-28T02:34:05;30.20;23.20;12.40
21358;PMS7003;13506;50.852;20.632;2023-02-28T02:36:49;25.00;23.00;13.40
21358;PMS7003;13506;50.852;20.632;2023-02-28T02:39:27;29.60;26.20;15.20
21358;PMS7003;13506;50.852;20.632;2023-02-28T02:42:00;24.80;20.00;12.00
21358;PMS7003;13506;50.852;20.632;2023-02-28T02:44:34;25.80;22.20;10.40
21358;PMS7003;13506;50.852;20.632;2023-02-28T02:47:07;24.20;24.00;14.00
21358;PMS7003;13506;50.852;20.632;2023-02-28T02:49:42;25.60;23.40;11.40
21358;PMS7003;13506;50.852;20.632;2023-02-28T02:52:16;20.80;17.40;11.20
21358;PMS7003;13506;50.852;20.632;2023-02-28T02:54:48;22.20;22.20;12.80
21358;PMS7003;13506;50.852;20.632;2023-02-28T02:57:21;28.80;27.60;15.00
21358;PMS7003;13506;50.852;20.632;2023-02-28T02:59:53;19.40;17.40;7.80
21358;PMS7003;13506;50.852;20.632;2023-02-28T03:02:24;22.80;21.60;10.80
21358;PMS7003;13506;50.852;20.632;2023-02-28T03:05:02;18.20;18.20;9.80
21358;PMS7003;13506;50.852;20.632;2023-02-28T03:07:33;25.20;23.40;11.60
21358;PMS7003;13506;50.852;20.632;2023-02-28T03:10:02;28.60;22.60;12.80
21358;PMS7003;13506;50.852;20.632;2023-02-28T03:12:48;35.80;27.00;15.80
21358;PMS7003;13506;50.852;20.632;2023-02-28T03:15:24;24.80;22.80;12.40
21358;PMS7003;13506;50.852;20.632;2023-02-28T03:18:01;21.60;19.00;10.80
21358;PMS7003;13506;50.852;20.632;2023-02-28T03:20:36;25.80;22.20;12.40
21358;PMS7003;13506;50.852;20.632;2023-02-28T03:23:13;29.40;25.80;14.60
21358;PMS7003;13506;50.852;20.632;2023-02-28T03:25:52;36.60;30.00;16.40
21358;PMS7003;13506;50.852;20.632;2023-02-28T03:28:29;33.80;26.00;14.80
21358;PMS7003;13506;50.852;20.632;2023-02-28T03:31:06;32.80;25.40;15.80
21358;PMS7003;13506;50.852;20.632;2023-02-28T03:33:39;29.40;24.60;14.40
21358;PMS7003;13506;50.852;20.632;2023-02-28T03:36:13;20.00;19.60;11.20
21358;PMS7003;13506;50.852;20.632;2023-02-28T03:38:46;23.60;22.60;13.40
21358;PMS7003;13506;50.852;20.632;2023-02-28T03:41:21;28.80;24.60;14.00
21358;PMS7003;13506;50.852;20.632;2023-02-28T03:43:53;29.00;26.00;15.00
21358;PMS7003;13506;50.852;20.632;2023-02-28T03:46:23;29.60;20.20;12.00
21358;PMS7003;13506;50.852;20.632;2023-02-28T03:48:56;32.20;26.60;15.20
21358;PMS7003;13506;50.852;20.632;2023-02-28T03:51:30;33.80;29.60;15.60
21358;PMS7003;13506;50.852;20.632;2023-02-28T03:53:59;31.40;26.00;14.00
21358;PMS7003;13506;50.852;20.632;2023-02-28T03:56:37;32.80;28.00;16.60
21358;PMS7003;13506;50.852;20.632;2023-02-28T03:59:10;26.20;24.80;16.40
21358;PMS7003;13506;50.852;20.632;2023-02-28T04:01:44;35.00;24.60;14.40
21358;PMS7003;13506;50.852;20.632;2023-02-28T04:04:15;30.80;25.60;14.40
21358;PMS7003;13506;50.852;20.632;2023-02-28T04:06:45;28.40;26.60;15.60
21358;PMS7003;13506;50.852;20.632;2023-02-28T04:09:15;32.20;28.60;16.60
21358;PMS7003;13506;50.852;20.632;2023-02-28T04:11:44;23.20;23.20;14.00
21358;PMS7003;13506;50.852;20.632;2023-02-28T04:14:17;34.20;29.80;17.00
21358;PMS7003;13506;50.852;20.632;2023-02-28T04:16:45;36.80;32.80;19.20
21358;PMS7003;13506;50.852;20.632;2023-02-28T04:19:13;37.80;32.40;20.20
21358;PMS7003;13506;50.852;20.632;2023-02-28T04:21:43;48.20;42.00;28.00
21358;PMS7003;13506;50.852;20.632;2023-02-28T04:24:13;53.80;44.80;26.80
21358;PMS7003;13506;50.852;20.632;2023-02-28T04:26:44;42.80;36.20;24.00
21358;PMS7003;13506;50.852;20.632;2023-02-28T04:29:18;37.20;36.40;21.00
21358;PMS7003;13506;50.852;20.632;2023-02-28T04:31:47;32.80;32.40;20.20
21358;PMS7003;13506;50.852;20.632;2023-02-28T04:34:15;36.20;36.00;21.00
21358;PMS7003;13506;50.852;20.632;2023-02-28T04:36:46;44.60;42.00;23.00
21358;PMS7003;13506;50.852;20.632;2023-02-28T04:39:14;43.80;37.80;22.20
21358;PMS7003;13506;50.852;20.632;2023-02-28T04:41:44;35.40;32.80;19.40
21358;PMS7003;13506;50.852;20.632;2023-02-28T04:44:12;35.80;29.60;17.60
21358;PMS7003;13506;50.852;20.632;2023-02-28T04:46:40;31.80;28.20;16.60
21358;PMS7003;13506;50.852;20.632;2023-02-28T04:49:08;34.40;31.60;17.40
21358;PMS7003;13506;50.852;20.632;2023-02-28T04:51:37;38.20;34.20;18.00
21358;PMS7003;13506;50.852;20.632;2023-02-28T04:54:07;37.40;37.00;21.60
21358;PMS7003;13506;50.852;20.632;2023-02-28T04:56:35;36.25;29.25;18.50
21358;PMS7003;13506;50.852;20.632;2023-02-28T04:59:03;32.60;30.80;18.80
21358;PMS7003;13506;50.852;20.632;2023-02-28T05:01:32;38.60;35.40;22.40
21358;PMS7003;13506;50.852;20.632;2023-02-28T05:04:03;41.20;38.20;23.00
21358;PMS7003;13506;50.852;20.632;2023-02-28T05:06:32;44.20;38.00;19.00
21358;PMS7003;13506;50.852;20.632;2023-02-28T05:09:00;58.75;51.00;29.50
21358;PMS7003;13506;50.852;20.632;2023-02-28T05:11:30;44.40;39.80;23.20
21358;PMS7003;13506;50.852;20.632;2023-02-28T05:14:00;50.60;37.40;22.60
21358;PMS7003;13506;50.852;20.632;2023-02-28T05:16:29;41.60;38.00;23.20
21358;PMS7003;13506;50.852;20.632;2023-02-28T05:18:58;44.20;38.00;23.00
21358;PMS7003;13506;50.852;20.632;2023-02-28T05:21:27;45.40;40.60;22.40
21358;PMS7003;13506;50.852;20.632;2023-02-28T05:23:58;30.00;28.00;20.00
21358;PMS7003;13506;50.852;20.632;2023-02-28T05:26:28;44.80;40.60;23.60
21358;PMS7003;13506;50.852;20.632;2023-02-28T05:28:57;40.00;39.60;22.00
21358;PMS7003;13506;50.852;20.632;2023-02-28T05:31:25;34.20;27.80;21.60
21358;PMS7003;13506;50.852;20.632;2023-02-28T05:33:53;46.00;38.80;23.20
21358;PMS7003;13506;50.852;20.632;2023-02-28T05:36:21;39.00;39.00;24.20
21358;PMS7003;13506;50.852;20.632;2023-02-28T05:38:49;45.40;35.40;22.60
21358;PMS7003;13506;50.852;20.632;2023-02-28T05:41:19;52.00;43.80;27.00
21358;PMS7003;13506;50.852;20.632;2023-02-28T05:43:48;55.50;50.25;32.00
21358;PMS7003;13506;50.852;20.632;2023-02-28T05:46:17;60.00;48.25;26.75
21358;PMS7003;13506;50.852;20.632;2023-02-28T05:48:45;43.40;34.60;18.80
21358;PMS7003;13506;50.852;20.632;2023-02-28T05:51:15;48.60;41.40;25.40
21358;PMS7003;13506;50.852;20.632;2023-02-28T05:53:43;40.60;34.40;19.60
21358;PMS7003;13506;50.852;20.632;2023-02-28T05:56:11;34.80;34.20;19.80
21358;PMS7003;13506;50.852;20.632;2023-02-28T05:58:39;30.20;25.20;14.40
21358;PMS7003;13506;50.852;20.632;2023-02-28T06:01:22;34.00;31.80;19.00
21358;PMS7003;13506;50.852;20.632;2023-02-28T06:03:57;45.20;30.80;18.40
21358;PMS7003;13506;50.852;20.632;2023-02-28T06:06:26;43.60;41.00;24.20
21358;PMS7003;13506;50.852;20.632;2023-02-28T06:08:55;43.20;39.60;23.40
21358;PMS7003;13506;50.852;20.632;2023-02-28T06:11:23;46.80;43.40;29.00
21358;PMS7003;13506;50.852;20.632;2023-02-28T06:13:53;62.75;55.50;33.25
21358;PMS7003;13506;50.852;20.632;2023-02-28T06:16:23;60.60;52.40;33.20
21358;PMS7003;13506;50.852;20.632;2023-02-28T06:18:51;55.50;48.00;33.00
21358;PMS7003;13506;50.852;20.632;2023-02-28T06:21:21;45.25;42.75;27.75
21358;PMS7003;13506;50.852;20.632;2023-02-28T06:23:49;67.75;54.50;32.75
21358;PMS7003;13506;50.852;20.632;2023-02-28T06:26:18;55.20;48.00;30.20
21358;PMS7003;13506;50.852;20.632;2023-02-28T06:28:46;62.40;48.20;31.60
21358;PMS7003;13506;50.852;20.632;2023-02-28T06:31:16;54.50;47.75;31.00
21358;PMS7003;13506;50.852;20.632;2023-02-28T06:33:46;57.60;47.20;30.80
21358;PMS7003;13506;50.852;20.632;2023-02-28T06:36:15;47.80;42.40;27.60
21358;PMS7003;13506;50.852;20.632;2023-02-28T06:38:43;47.40;39.20;23.40
21358;PMS7003;13506;50.852;20.632;2023-02-28T06:41:17;39.80;32.60;21.00
21358;PMS7003;13506;50.852;20.632;2023-02-28T06:43:44;32.20;31.80;21.60
21358;PMS7003;13506;50.852;20.632;2023-02-28T06:46:13;36.00;31.40;22.00
21358;PMS7003;13506;50.852;20.632;2023-02-28T06:48:42;39.20;35.40;22.20
21358;PMS7003;13506;50.852;20.632;2023-02-28T06:51:12;47.00;42.40;28.20
21358;PMS7003;13506;50.852;20.632;2023-02-28T06:53:42;47.20;39.80;25.20
21358;PMS7003;13506;50.852;20.632;2023-02-28T06:56:11;33.40;32.20;20.00
21358;PMS7003;13506;50.852;20.632;2023-02-28T06:58:41;30.00;27.20;17.40
21358;PMS7003;13506;50.852;20.632;2023-02-28T07:01:13;28.80;26.00;16.80
21358;PMS7003;13506;50.852;20.632;2023-02-28T07:03:41;39.60;34.80;21.00
21358;PMS7003;13506;50.852;20.632;2023-02-28T07:06:09;43.80;38.20;25.00
21358;PMS7003;13506;50.852;20.632;2023-02-28T07:08:38;40.40;36.00;22.00
21358;PMS7003;13506;50.852;20.632;2023-02-28T07:11:07;39.20;34.00;24.00
21358;PMS7003;13506;50.852;20.632;2023-02-28T07:13:35;39.60;34.60;19.60
21358;PMS7003;13506;50.852;20.632;2023-02-28T07:16:04;40.00;36.00;24.00
21358;PMS7003;13506;50.852;20.632;2023-02-28T07:18:34;37.00;32.60;18.80
21358;PMS7003;13506;50.852;20.632;2023-02-28T07:21:02;41.00;36.00;22.80
21358;PMS7003;13506;50.852;20.632;2023-02-28T07:23:33;37.00;32.00;20.20
21358;PMS7003;13506;50.852;20.632;2023-02-28T07:26:03;40.60;36.20;21.40
21358;PMS7003;13506;50.852;20.632;2023-02-28T07:28:32;38.20;32.20;21.80
21358;PMS7003;13506;50.852;20.632;2023-02-28T07:31:03;37.20;31.00;19.80
21358;PMS7003;13506;50.852;20.632;2023-02-28T07:33:31;30.20;26.40;17.20
21358;PMS7003;13506;50.852;20.632;2023-02-28T07:36:00;32.60;28.00;19.00
21358;PMS7003;13506;50.852;20.632;2023-02-28T07:38:28;24.80;23.60;16.00
21358;PMS7003;13506;50.852;20.632;2023-02-28T07:40:57;32.00;27.80;18.60
21358;PMS7003;13506;50.852;20.632;2023-02-28T07:43:25;27.00;24.00;14.20
21358;PMS7003;13506;50.852;20.632;2023-02-28T07:45:53;33.60;27.80;18.20
21358;PMS7003;13506;50.852;20.632;2023-02-28T07:48:21;39.60;38.00;24.80
21358;PMS7003;13506;50.852;20.632;2023-02-28T07:50:53;27.40;24.60;16.00
21358;PMS7003;13506;50.852;20.632;2023-02-28T07:53:21;26.60;24.20;15.00
21358;PMS7003;13506;50.852;20.632;2023-02-28T07:55:50;28.40;22.80;12.60
21358;PMS7003;13506;50.852;20.632;2023-02-28T07:58:19;23.60;19.20;12.20
21358;PMS7003;13506;50.852;20.632;2023-02-28T08:00:47;17.25;15.25;9.75
21358;PMS7003;13506;50.852;20.632;2023-02-28T08:03:15;16.50;14.25;9.00
21358;PMS7003;13506;50.852;20.632;2023-02-28T08:05:44;17.00;15.00;9.00
21358;PMS7003;13506;50.852;20.632;2023-02-28T08:08:13;18.25;16.50;10.00
21358;PMS7003;13506;50.852;20.632;2023-02-28T08:10:41;20.60;18.80;12.40
21358;PMS7003;13506;50.852;20.632;2023-02-28T08:13:10;18.20;17.20;8.20
21358;PMS7003;13506;50.852;20.632;2023-02-28T08:15:39;19.60;18.80;11.80
21358;PMS7003;13506;50.852;20.632;2023-02-28T08:18:08;15.50;15.25;9.25
21358;PMS7003;13506;50.852;20.632;2023-02-28T08:20:36;17.50;16.50;9.75
21358;PMS7003;13506;50.852;20.632;2023-02-28T08:23:04;19.00;17.00;10.20
21358;PMS7003;13506;50.852;20.632;2023-02-28T08:25:31;22.00;18.40;11.60
21358;PMS7003;13506;50.852;20.632;2023-02-28T08:27:59;19.60;16.40;10.80
21358;PMS7003;13506;50.852;20.632;2023-02-28T08:30:27;19.80;17.60;9.60
21358;PMS7003;13506;50.852;20.632;2023-02-28T08:32:56;17.20;16.80;8.60
21358;PMS7003;13506;50.852;20.632;2023-02-28T08:35:25;16.20;14.20;8.60
21358;PMS7003;13506;50.852;20.632;2023-02-28T08:37:52;18.80;18.20;10.80
21358;PMS7003;13506;50.852;20.632;2023-02-28T08:40:21;22.80;19.00;10.20
21358;PMS7003;13506;50.852;20.632;2023-02-28T08:42:49;23.80;20.60;12.20
21358;PMS7003;13506;50.852;20.632;2023-02-28T08:45:17;15.80;15.40;10.00
21358;PMS7003;13506;50.852;20.632;2023-02-28T08:47:45;17.00;15.75;10.50
21358;PMS7003;13506;50.852;20.632;2023-02-28T08:50:15;16.50;15.25;8.50
21358;PMS7003;13506;50.852;20.632;2023-02-28T08:52:43;17.80;17.80;11.00
21358;PMS7003;13506;50.852;20.632;2023-02-28T08:55:11;19.80;16.00;9.60
21358;PMS7003;13506;50.852;20.632;2023-02-28T08:57:39;17.25;15.00;9.00
21358;PMS7003;13506;50.852;20.632;2023-02-28T09:00:07;18.80;17.20;10.40
21358;PMS7003;13506;50.852;20.632;2023-02-28T09:02:39;20.40;19.20;9.60
21358;PMS7003;13506;50.852;20.632;2023-02-28T09:05:08;17.50;16.00;9.25
21358;PMS7003;13506;50.852;20.632;2023-02-28T09:07:37;19.00;17.80;9.00
21358;PMS7003;13506;50.852;20.632;2023-02-28T09:10:06;20.20;18.20;10.00
21358;PMS7003;13506;50.852;20.632;2023-02-28T09:12:34;20.80;18.80;13.20
21358;PMS7003;13506;50.852;20.632;2023-02-28T09:15:03;20.00;18.40;12.00
21358;PMS7003;13506;50.852;20.632;2023-02-28T09:17:32;21.20;18.60;9.80
21358;PMS7003;13506;50.852;20.632;2023-02-28T09:20:00;21.80;21.00;11.80
21358;PMS7003;13506;50.852;20.632;2023-02-28T09:22:28;22.00;18.40;11.20
21358;PMS7003;13506;50.852;20.632;2023-02-28T09:24:57;23.60;18.60;11.00
21358;PMS7003;13506;50.852;20.632;2023-02-28T09:27:25;22.80;19.00;10.60
21358;PMS7003;13506;50.852;20.632;2023-02-28T09:29:53;22.60;19.40;11.40
21358;PMS7003;13506;50.852;20.632;2023-02-28T09:32:21;19.80;15.00;10.20
21358;PMS7003;13506;50.852;20.632;2023-02-28T09:34:49;21.20;16.80;9.00
21358;PMS7003;13506;50.852;20.632;2023-02-28T09:37:17;34.00;26.00;16.20
21358;PMS7003;13506;50.852;20.632;2023-02-28T09:39:45;29.60;28.40;17.60
21358;PMS7003;13506;50.852;20.632;2023-02-28T09:42:17;19.20;16.40;9.40
21358;PMS7003;13506;50.852;20.632;2023-02-28T09:44:49;20.80;19.60;9.40
21358;PMS7003;13506;50.852;20.632;2023-02-28T09:47:19;16.60;14.40;10.20
21358;PMS7003;13506;50.852;20.632;2023-02-28T09:49:56;24.60;24.60;13.00
21358;PMS7003;13506;50.852;20.632;2023-02-28T09:52:44;22.00;18.40;12.00
21358;PMS7003;13506;50.852;20.632;2023-02-28T09:55:18;21.20;16.80;10.00
21358;PMS7003;13506;50.852;20.632;2023-02-28T09:57:54;24.00;17.20;12.00
21358;PMS7003;13506;50.852;20.632;2023-02-28T10:00:27;21.80;19.60;9.80
21358;PMS7003;13506;50.852;20.632;2023-02-28T10:03:04;20.20;17.60;8.80
21358;PMS7003;13506;50.852;20.632;2023-02-28T10:05:43;19.60;15.80;8.00
21358;PMS7003;13506;50.852;20.632;2023-02-28T10:08:21;18.60;17.00;11.00
21358;PMS7003;13506;50.852;20.632;2023-02-28T10:10:54;20.00;18.20;10.80
21358;PMS7003;13506;50.852;20.632;2023-02-28T10:13:26;22.40;20.40;11.60
21358;PMS7003;13506;50.852;20.632;2023-02-28T10:16:02;26.20;21.80;12.00
21358;PMS7003;13506;50.852;20.632;2023-02-28T10:18:38;30.00;26.80;15.00
21358;PMS7003;13506;50.852;20.632;2023-02-28T10:21:17;20.60;18.20;10.00
21358;PMS7003;13506;50.852;20.632;2023-02-28T10:23:48;17.60;17.20;10.00
21358;PMS7003;13506;50.852;20.632;2023-02-28T10:26:19;21.20;19.80;11.00
21358;PMS7003;13506;50.852;20.632;2023-02-28T10:28:50;18.60;18.60;10.40
21358;PMS7003;13506;50.852;20.632;2023-02-28T10:31:21;19.80;18.80;12.60
21358;PMS7003;13506;50.852;20.632;2023-02-28T10:33:48;24.00;21.60;11.60
21358;PMS7003;13506;50.852;20.632;2023-02-28T10:36:19;25.40;22.60;12.60
21358;PMS7003;13506;50.852;20.632;2023-02-28T10:38:48;25.20;21.20;12.60
21358;PMS7003;13506;50.852;20.632;2023-02-28T10:41:26;21.80;20.00;13.80
21358;PMS7003;13506;50.852;20.632;2023-02-28T10:44:14;16.40;15.60;10.00
21358;PMS7003;13506;50.852;20.632;2023-02-28T10:46:46;23.60;22.00;13.60
21358;PMS7003;13506;50.852;20.632;2023-02-28T10:49:17;24.50;20.50;12.00
21358;PMS7003;13506;50.852;20.632;2023-02-28T10:51:48;27.40;22.00;13.40
21358;PMS7003;13506;50.852;20.632;2023-02-28T10:54:19;29.20;25.00;15.20
21358;PMS7003;13506;50.852;20.632;2023-02-28T10:57:12;23.00;20.60;11.40
21358;PMS7003;13506;50.852;20.632;2023-02-28T10:59:46;17.40;17.00;11.20
21358;PMS7003;13506;50.852;20.632;2023-02-28T11:02:35;20.00;18.20;11.40
21358;PMS7003;13506;50.852;20.632;2023-02-28T11:07:54;24.60;22.60;13.60
21358;PMS7003;13506;50.852;20.632;2023-02-28T11:10:24;22.40;20.80;11.60
21358;PMS7003;13506;50.852;20.632;2023-02-28T11:12:55;25.80;23.00;14.00
21358;PMS7003;13506;50.852;20.632;2023-02-28T11:15:27;21.60;19.20;12.00
21358;PMS7003;13506;50.852;20.632;2023-02-28T11:17:57;25.00;18.80;10.20
21358;PMS7003;13506;50.852;20.632;2023-02-28T11:20:28;16.80;15.80;8.40
21358;PMS7003;13506;50.852;20.632;2023-02-28T11:23:00;25.20;18.40;10.60
21358;PMS7003;13506;50.852;20.632;2023-02-28T11:25:31;18.80;16.80;11.00
21358;PMS7003;13506;50.852;20.632;2023-02-28T11:28:02;19.20;18.20;11.40
21358;PMS7003;13506;50.852;20.632;2023-02-28T11:30:34;17.80;15.80;9.40
21358;PMS7003;13506;50.852;20.632;2023-02-28T11:33:21;18.60;17.00;10.00
21358;PMS7003;13506;50.852;20.632;2023-02-28T11:35:55;20.00;17.40;8.60
21358;PMS7003;13506;50.852;20.632;2023-02-28T11:38:27;15.80;15.80;9.00
21358;PMS7003;13506;50.852;20.632;2023-02-28T11:41:06;14.20;14.20;8.00
21358;PMS7003;13506;50.852;20.632;2023-02-28T11:44:04;15.60;14.00;8.00
21358;PMS7003;13506;50.852;20.632;2023-02-28T11:46:43;17.60;17.40;9.20
21358;PMS7003;13506;50.852;20.632;2023-02-28T11:52:14;18.20;16.60;9.00
21358;PMS7003;13506;50.852;20.632;2023-02-28T11:54:58;24.20;21.40;12.00
21358;PMS7003;13506;50.852;20.632;2023-02-28T11:57:52;30.80;28.20;15.00
21358;PMS7003;13506;50.852;20.632;2023-02-28T12:03:48;15.80;15.80;7.60
21358;PMS7003;13506;50.852;20.632;2023-02-28T12:06:32;18.60;14.80;9.20
21358;PMS7003;13506;50.852;20.632;2023-02-28T12:09:20;19.40;17.00;9.80
21358;PMS7003;13506;50.852;20.632;2023-02-28T12:11:58;17.50;12.50;6.00
21358;PMS7003;13506;50.852;20.632;2023-02-28T12:17:44;19.00;17.20;10.20
21358;PMS7003;13506;50.852;20.632;2023-02-28T12:20:25;20.80;17.80;11.00
21358;PMS7003;13506;50.852;20.632;2023-02-28T12:23:06;20.60;17.20;11.00
21358;PMS7003;13506;50.852;20.632;2023-02-28T12:25:55;21.20;18.60;9.80
21358;PMS7003;13506;50.852;20.632;2023-02-28T12:28:35;20.00;17.60;10.60
21358;PMS7003;13506;50.852;20.632;2023-02-28T12:31:09;20.40;18.80;8.80
21358;PMS7003;13506;50.852;20.632;2023-02-28T12:33:45;18.20;17.00;9.80
21358;PMS7003;13506;50.852;20.632;2023-02-28T12:36:20;18.80;18.80;10.60
21358;PMS7003;13506;50.852;20.632;2023-02-28T12:38:52;15.80;15.00;8.00
21358;PMS7003;13506;50.852;20.632;2023-02-28T12:41:25;20.80;18.60;11.00
21358;PMS7003;13506;50.852;20.632;2023-02-28T12:44:01;18.60;18.00;10.60
21358;PMS7003;13506;50.852;20.632;2023-02-28T12:46:33;14.00;14.00;7.60
21358;PMS7003;13506;50.852;20.632;2023-02-28T12:49:06;19.00;14.20;7.40
21358;PMS7003;13506;50.852;20.632;2023-02-28T12:51:41;16.60;13.00;7.40
21358;PMS7003;13506;50.852;20.632;2023-02-28T12:54:14;21.20;13.20;8.80
21358;PMS7003;13506;50.852;20.632;2023-02-28T12:56:53;17.00;14.50;8.00
21358;PMS7003;13506;50.852;20.632;2023-02-28T12:59:32;18.00;16.20;8.40
21358;PMS7003;13506;50.852;20.632;2023-02-28T13:11:24;22.50;17.00;8.00
21358;PMS7003;13506;50.852;20.632;2023-02-28T13:13:57;15.40;13.40;7.00
21358;PMS7003;13506;50.852;20.632;2023-02-28T13:16:32;21.20;17.20;10.80
21358;PMS7003;13506;50.852;20.632;2023-02-28T13:19:24;22.20;16.20;7.80
21358;PMS7003;13506;50.852;20.632;2023-02-28T13:21:55;16.20;12.00;7.60
21358;PMS7003;13506;50.852;20.632;2023-02-28T13:36:31;17.25;14.00;7.25
21358;PMS7003;13506;50.852;20.632;2023-02-28T13:39:00;14.00;13.50;7.00
21358;PMS7003;13506;50.852;20.632;2023-02-28T13:44:24;12.40;12.40;6.00
21358;PMS7003;13506;50.852;20.632;2023-02-28T13:52:52;19.00;15.40;7.60
21358;PMS7003;13506;50.852;20.632;2023-02-28T13:55:29;18.40;17.40;10.00
21358;PMS7003;13506;50.852;20.632;2023-02-28T13:58:19;19.80;14.00;10.00
21358;PMS7003;13506;50.852;20.632;2023-02-28T14:01:03;14.75;13.50;7.25
21358;PMS7003;13506;50.852;20.632;2023-02-28T14:04:03;21.40;17.60;11.60
21358;PMS7003;13506;50.852;20.632;2023-02-28T14:06:47;20.20;16.60;7.20
21358;PMS7003;13506;50.852;20.632;2023-02-28T14:09:19;21.00;18.80;10.00
21358;PMS7003;13506;50.852;20.632;2023-02-28T14:11:52;15.60;14.00;8.00
21358;PMS7003;13506;50.852;20.632;2023-02-28T14:17:24;14.00;14.00;8.00
21358;PMS7003;13506;50.852;20.632;2023-02-28T14:19:52;13.80;12.20;6.80
21358;PMS7003;13506;50.852;20.632;2023-02-28T14:25:20;23.00;20.20;12.60
21358;PMS7003;13506;50.852;20.632;2023-02-28T14:28:01;18.40;17.40;8.60
21358;PMS7003;13506;50.852;20.632;2023-02-28T14:30:43;19.40;13.20;5.60
21358;PMS7003;13506;50.852;20.632;2023-02-28T14:33:35;16.80;14.00;8.20
21358;PMS7003;13506;50.852;20.632;2023-02-28T14:36:26;16.80;15.20;8.00
21358;PMS7003;13506;50.852;20.632;2023-02-28T14:38:59;13.00;13.00;7.00
21358;PMS7003;13506;50.852;20.632;2023-02-28T14:41:33;17.75;13.75;6.50
21358;PMS7003;13506;50.852;20.632;2023-02-28T14:44:13;15.00;13.75;7.00
21358;PMS7003;13506;50.852;20.632;2023-02-28T14:46:45;14.60;13.60;8.20
21358;PMS7003;13506;50.852;20.632;2023-02-28T14:49:17;13.50;12.50;6.25
21358;PMS7003;13506;50.852;20.632;2023-02-28T14:51:48;14.80;14.00;7.80
21358;PMS7003;13506;50.852;20.632;2023-02-28T14:54:28;15.25;15.25;7.00